Time;durP1;ratioP1;P1;durP2;ratioP2;P2;SDS_P1;SDS_P2;PMS_P1;PMS_P2;Temp;Humidity;BMP_temperature;BMP_pressure;BME280_temperature;BME280_humidity;BME280_pressure;Samples;Min_cycle;Max_cycle;Signal;HPM_P1;HPM_P2
2023/01/19 00:01:26;;;;;;;;;;;1.00;99.90;;;;;;5070630;28;19937;-79
2023/01/19 00:03:53;;;;;;;;;;;0.90;99.90;;;;;;5080427;28;19928;-79
2023/01/19 00:06:20;;;;;;;;;;;0.90;99.90;;;;;;5057924;28;19931;-79
2023/01/19 00:08:48;;;;;;;;;;;0.90;99.90;;;;;;5071469;28;19938;-78
2023/01/19 00:11:16;;;;;;;;;;;1.00;99.90;;;;;;5070161;28;19924;-78
2023/01/19 00:13:48;;;;;;;;;;;0.90;99.90;;;;;;5075651;28;19928;-78
2023/01/19 00:16:17;;;;;;;;;;;0.90;99.90;;;;;;5067647;28;19932;-78
2023/01/19 00:18:46;;;;;;;;;;;0.90;99.90;;;;;;5050632;28;20023;-78
2023/01/19 00:21:14;;;;;;;;;;;1.00;99.90;;;;;;5068328;28;20410;-78
2023/01/19 00:23:41;;;;;;;;;;;0.90;99.90;;;;;;5070589;28;19981;-79
2023/01/19 00:26:09;;;;;;;;;;;0.90;99.90;;;;;;5070780;28;19940;-78
2023/01/19 00:28:36;;;;;;;;;;;0.90;99.90;;;;;;5075032;28;19924;-78
2023/01/19 00:31:02;;;;;;;;;;;0.90;99.90;;;;;;5064010;28;21411;-78
2023/01/19 00:33:31;;;;;;;;;;;0.90;99.90;;;;;;5071657;28;20157;-78
2023/01/19 00:35:57;;;;;;;;;;;0.90;99.90;;;;;;5072240;28;19989;-78
2023/01/19 00:38:24;;;;;;;;;;;0.90;99.90;;;;;;5057188;28;20305;-79
2023/01/19 00:40:51;;;;;;;;;;;0.90;99.90;;;;;;5078521;28;19947;-78
2023/01/19 00:43:18;;;;;;;;;;;0.90;99.90;;;;;;5056012;28;20013;-78
2023/01/19 00:45:45;;;;;;;;;;;0.80;99.90;;;;;;5075477;28;19932;-78
2023/01/19 00:48:14;;;;;;;;;;;0.90;99.90;;;;;;5059080;28;20583;-78
2023/01/19 00:50:43;;;;;;;;;;;0.80;99.90;;;;;;5053637;28;20677;-79
2023/01/19 00:53:10;;;;;;;;;;;0.80;99.90;;;;;;5076448;28;19946;-78
2023/01/19 00:55:37;;;;;;;;;;;0.80;99.90;;;;;;5075832;28;19932;-78
2023/01/19 00:58:05;;;;;;;;;;;0.80;99.90;;;;;;5060427;28;19989;-79
2023/01/19 01:00:32;;;;;;;;;;;0.80;99.90;;;;;;5059294;28;19924;-78
2023/01/19 01:02:59;;;;;;;;;;;0.80;99.90;;;;;;5059127;28;19928;-78
2023/01/19 01:05:25;;;;;;;;;;;0.80;99.90;;;;;;5058084;28;19932;-78
2023/01/19 01:07:54;;;;;;;;;;;0.80;99.90;;;;;;5063524;28;22144;-79
2023/01/19 01:10:21;;;;;;;;;;;0.80;99.90;;;;;;5064150;28;20405;-78
2023/01/19 01:12:49;;;;;;;;;;;0.80;99.90;;;;;;5076288;28;19932;-78
2023/01/19 01:15:17;;;;;;;;;;;0.80;99.90;;;;;;5076925;28;19936;-77
2023/01/19 01:17:46;;;;;;;;;;;0.80;99.90;;;;;;5070257;28;20448;-79
2023/01/19 01:20:15;;;;;;;;;;;0.80;99.90;;;;;;5075920;28;19932;-79
2023/01/19 01:22:44;;;;;;;;;;;0.70;99.90;;;;;;5062174;28;20163;-78
2023/01/19 01:25:13;;;;;;;;;;;0.70;99.90;;;;;;5073145;28;19938;-79
2023/01/19 01:27:40;;;;;;;;;;;0.70;99.90;;;;;;5074628;28;19932;-79
2023/01/19 01:30:08;;;;;;;;;;;0.70;99.90;;;;;;5060250;28;20416;-79
2023/01/19 01:32:35;;;;;;;;;;;0.70;99.90;;;;;;5060392;28;20393;-79
2023/01/19 01:35:05;;;;;;;;;;;0.70;99.90;;;;;;5073888;28;20564;-78
2023/01/19 01:37:32;;;;;;;;;;;0.70;99.90;;;;;;5069999;28;20321;-79
2023/01/19 01:39:59;;;;;;;;;;;0.70;99.90;;;;;;5075629;28;19928;-79
2023/01/19 01:42:29;;;;;;;;;;;0.70;99.90;;;;;;5062236;28;20332;-79
2023/01/19 01:44:56;;;;;;;;;;;0.70;99.90;;;;;;5072179;28;19932;-78
2023/01/19 01:47:28;;;;;;;;;;;0.70;99.90;;;;;;5057642;28;19931;-79
2023/01/19 01:49:57;;;;;;;;;;;0.70;99.90;;;;;;5073699;28;19935;-79
2023/01/19 01:52:26;;;;;;;;;;;0.70;99.90;;;;;;5048102;28;20466;-78
2023/01/19 01:54:56;;;;;;;;;;;0.70;99.90;;;;;;5052831;28;19992;-78
2023/01/19 01:57:26;;;;;;;;;;;0.70;99.90;;;;;;5075668;28;19925;-79
2023/01/19 01:59:57;;;;;;;;;;;0.70;99.90;;;;;;5054336;28;20390;-79
2023/01/19 02:05:14;;;;;;;;;;;0.60;99.90;;;;;;5060559;28;19920;-79
2023/01/19 02:13:22;;;;;;;;;;;0.60;99.90;;;;;;5072188;28;20305;-79
2023/01/19 02:15:51;;;;;;;;;;;0.60;99.90;;;;;;5060716;28;20691;-78
2023/01/19 02:18:19;;;;;;;;;;;0.60;99.90;;;;;;5055099;28;19928;-79
2023/01/19 02:20:52;;;;;;;;;;;0.70;99.90;;;;;;5056016;28;20026;-79
2023/01/19 02:23:20;;;;;;;;;;;0.60;99.90;;;;;;5048255;28;19945;-79
2023/01/19 02:25:49;;;;;;;;;;;0.60;99.90;;;;;;5073897;28;19924;-78
2023/01/19 02:28:16;;;;;;;;;;;0.60;99.90;;;;;;5065062;28;19932;-78
2023/01/19 02:30:43;;;;;;;;;;;0.60;99.90;;;;;;5066137;28;19931;-79
2023/01/19 02:33:10;;;;;;;;;;;0.60;99.90;;;;;;5059916;28;20545;-78
2023/01/19 02:35:38;;;;;;;;;;;0.60;99.90;;;;;;5069155;28;20345;-78
2023/01/19 02:38:06;;;;;;;;;;;0.60;99.90;;;;;;5071041;28;20476;-78
2023/01/19 02:40:33;;;;;;;;;;;0.60;99.90;;;;;;5069525;28;20003;-78
2023/01/19 02:43:02;;;;;;;;;;;0.60;99.90;;;;;;5073952;28;19929;-78
2023/01/19 02:45:30;;;;;;;;;;;0.60;99.90;;;;;;5072281;28;19924;-78
2023/01/19 02:47:57;;;;;;;;;;;0.60;99.90;;;;;;5068328;28;19924;-78
2023/01/19 02:50:40;;;;;;;;;;;0.60;99.90;;;;;;5055795;28;19925;-78
2023/01/19 02:53:12;;;;;;;;;;;0.50;99.90;;;;;;5064329;28;19924;-79
2023/01/19 02:55:40;;;;;;;;;;;0.50;99.90;;;;;;5077836;28;19924;-78
2023/01/19 02:58:11;;;;;;;;;;;0.60;99.90;;;;;;5056368;28;19931;-78
2023/01/19 03:00:44;;;;;;;;;;;0.50;99.90;;;;;;5071917;28;19932;-79
2023/01/19 03:03:15;;;;;;;;;;;0.50;99.90;;;;;;5068788;28;19924;-78
2023/01/19 03:05:48;;;;;;;;;;;0.50;99.90;;;;;;5073244;28;20358;-78
2023/01/19 03:08:23;;;;;;;;;;;0.50;99.90;;;;;;5051549;28;19964;-78
2023/01/19 03:10:53;;;;;;;;;;;0.50;99.90;;;;;;5053923;28;19936;-78
2023/01/19 03:13:27;;;;;;;;;;;0.50;99.90;;;;;;5050378;28;20496;-78
2023/01/19 03:15:57;;;;;;;;;;;0.50;99.90;;;;;;5055085;28;20541;-79
2023/01/19 03:18:27;;;;;;;;;;;0.50;99.90;;;;;;5058031;28;20394;-78
2023/01/19 03:20:56;;;;;;;;;;;0.50;99.90;;;;;;5056139;28;19928;-79
2023/01/19 03:23:26;;;;;;;;;;;0.50;99.90;;;;;;5075879;28;19928;-78
2023/01/19 03:25:54;;;;;;;;;;;0.50;99.90;;;;;;5070540;28;19924;-78
2023/01/19 03:28:22;;;;;;;;;;;0.50;99.90;;;;;;5068598;28;20639;-80
2023/01/19 03:30:57;;;;;;;;;;;0.50;99.90;;;;;;5065653;28;19964;-79
2023/01/19 03:33:26;;;;;;;;;;;0.50;99.90;;;;;;5069370;28;19936;-78
2023/01/19 03:35:56;;;;;;;;;;;0.50;99.90;;;;;;5057192;28;20024;-79
2023/01/19 03:38:25;;;;;;;;;;;0.50;99.90;;;;;;5070428;28;19924;-79
2023/01/19 03:40:53;;;;;;;;;;;0.40;99.90;;;;;;5076604;28;19936;-78
2023/01/19 03:43:21;;;;;;;;;;;0.50;99.90;;;;;;5074054;28;19924;-79
2023/01/19 03:45:48;;;;;;;;;;;0.40;99.90;;;;;;5068685;28;19936;-78
2023/01/19 03:48:17;;;;;;;;;;;0.40;99.90;;;;;;5078052;28;19928;-78
2023/01/19 03:50:44;;;;;;;;;;;0.40;99.90;;;;;;5071412;28;19924;-79
2023/01/19 03:53:13;;;;;;;;;;;0.40;99.90;;;;;;5069131;28;19925;-78
2023/01/19 03:55:44;;;;;;;;;;;0.40;99.90;;;;;;5075716;28;19924;-78
2023/01/19 03:58:11;;;;;;;;;;;0.40;99.90;;;;;;5073736;28;20034;-78
2023/01/19 04:00:38;;;;;;;;;;;0.40;99.90;;;;;;5075057;28;20022;-78
2023/01/19 04:03:06;;;;;;;;;;;0.40;99.90;;;;;;5077203;28;20006;-78
2023/01/19 04:05:36;;;;;;;;;;;0.40;99.90;;;;;;5071174;28;19964;-78
2023/01/19 04:08:03;;;;;;;;;;;0.40;99.90;;;;;;5081146;28;20306;-79
2023/01/19 04:10:30;;;;;;;;;;;0.40;99.90;;;;;;5079767;28;19956;-78
2023/01/19 04:12:58;;;;;;;;;;;0.40;99.90;;;;;;5076864;28;20352;-78
2023/01/19 04:15:25;;;;;;;;;;;0.40;99.90;;;;;;5055612;28;19974;-78
2023/01/19 04:17:51;;;;;;;;;;;0.30;99.90;;;;;;5058129;28;20566;-78
2023/01/19 04:20:20;;;;;;;;;;;0.40;99.90;;;;;;5083059;28;20481;-78
2023/01/19 04:22:49;;;;;;;;;;;0.30;99.90;;;;;;5080983;28;19924;-78
2023/01/19 04:25:16;;;;;;;;;;;0.30;99.90;;;;;;5062386;28;19970;-78
2023/01/19 04:27:43;;;;;;;;;;;0.30;99.90;;;;;;5061165;28;20014;-78
2023/01/19 04:30:10;;;;;;;;;;;0.30;99.90;;;;;;5054094;28;20485;-78
2023/01/19 04:32:37;;;;;;;;;;;0.30;99.90;;;;;;5082437;28;19932;-78
2023/01/19 04:35:04;;;;;;;;;;;0.30;99.90;;;;;;5083651;28;20019;-78
2023/01/19 04:37:31;;;;;;;;;;;0.30;99.90;;;;;;5074489;28;20002;-78
2023/01/19 04:39:59;;;;;;;;;;;0.30;99.90;;;;;;5075186;28;19925;-79
2023/01/19 04:42:27;;;;;;;;;;;0.30;99.90;;;;;;5062848;28;19935;-78
2023/01/19 04:44:54;;;;;;;;;;;0.30;99.90;;;;;;5077920;28;20345;-78
2023/01/19 04:47:21;;;;;;;;;;;0.30;99.90;;;;;;5081764;28;19969;-78
2023/01/19 04:49:47;;;;;;;;;;;0.30;99.90;;;;;;5064971;28;20018;-78
2023/01/19 04:52:14;;;;;;;;;;;0.30;99.90;;;;;;5076816;28;19978;-79
2023/01/19 04:54:41;;;;;;;;;;;0.30;99.90;;;;;;5074922;28;20378;-79
2023/01/19 04:57:10;;;;;;;;;;;0.20;99.90;;;;;;5075532;28;20023;-78
2023/01/19 04:59:37;;;;;;;;;;;0.20;99.90;;;;;;5071292;28;19932;-78
2023/01/19 05:02:03;;;;;;;;;;;0.20;99.90;;;;;;5055751;28;19938;-78
2023/01/19 05:04:30;;;;;;;;;;;0.20;99.90;;;;;;5074839;28;19932;-78
2023/01/19 05:06:58;;;;;;;;;;;0.20;99.90;;;;;;5078780;28;20452;-78
2023/01/19 05:09:25;;;;;;;;;;;0.20;99.90;;;;;;5082971;28;19927;-78
2023/01/19 05:11:52;;;;;;;;;;;0.20;99.90;;;;;;5082585;28;19931;-78
2023/01/19 05:14:21;;;;;;;;;;;0.20;99.90;;;;;;5062155;28;19938;-78
2023/01/19 05:16:48;;;;;;;;;;;0.20;99.90;;;;;;5076182;28;19925;-78
2023/01/19 05:19:15;;;;;;;;;;;0.20;99.90;;;;;;5057955;28;19925;-78
2023/01/19 05:21:41;;;;;;;;;;;0.20;99.90;;;;;;5056256;28;19943;-79
2023/01/19 05:24:11;;;;;;;;;;;0.20;99.90;;;;;;5067924;28;19932;-78
2023/01/19 05:26:38;;;;;;;;;;;0.10;99.90;;;;;;5081151;28;19932;-78
2023/01/19 05:29:08;;;;;;;;;;;0.10;99.90;;;;;;5064729;28;20304;-78
2023/01/19 05:31:37;;;;;;;;;;;0.10;99.90;;;;;;5078492;28;19925;-78
2023/01/19 05:34:04;;;;;;;;;;;0.10;99.90;;;;;;5069498;28;19928;-78
2023/01/19 05:36:31;;;;;;;;;;;0.10;99.90;;;;;;5060916;28;20107;-78
2023/01/19 05:38:58;;;;;;;;;;;0.10;99.90;;;;;;5064316;28;20357;-78
2023/01/19 05:41:25;;;;;;;;;;;0.10;99.90;;;;;;5079304;28;20135;-79
2023/01/19 05:43:52;;;;;;;;;;;0.10;99.90;;;;;;5081108;28;20626;-79
2023/01/19 05:46:19;;;;;;;;;;;0.10;99.90;;;;;;5085486;28;19932;-77
2023/01/19 05:48:48;;;;;;;;;;;0.10;99.90;;;;;;5065189;28;19924;-78
2023/01/19 05:51:17;;;;;;;;;;;0.10;99.90;;;;;;5080079;28;20032;-79
2023/01/19 05:53:44;;;;;;;;;;;0.00;99.90;;;;;;5085312;28;19928;-79
2023/01/19 05:56:11;;;;;;;;;;;0.00;99.90;;;;;;5084197;28;20406;-78
2023/01/19 05:58:39;;;;;;;;;;;0.10;99.90;;;;;;5075828;28;19928;-78
2023/01/19 06:01:12;;;;;;;;;;;0.00;99.90;;;;;;5065386;28;19935;-80
2023/01/19 06:03:43;;;;;;;;;;;0.00;99.90;;;;;;5060588;28;19928;-78
2023/01/19 06:06:13;;;;;;;;;;;0.00;99.90;;;;;;5071872;28;19928;-80
2023/01/19 06:08:41;;;;;;;;;;;0.00;99.90;;;;;;5072977;28;20010;-79
2023/01/19 06:11:08;;;;;;;;;;;0.00;99.90;;;;;;5066743;28;20378;-78
2023/01/19 06:13:35;;;;;;;;;;;0.00;99.90;;;;;;5077793;28;19970;-77
2023/01/19 06:16:03;;;;;;;;;;;0.00;99.90;;;;;;5067848;28;19940;-76
2023/01/19 06:18:30;;;;;;;;;;;0.00;99.90;;;;;;5075032;28;19977;-78
2023/01/19 06:20:58;;;;;;;;;;;-0.10;99.90;;;;;;5055611;28;19978;-76
2023/01/19 06:23:27;;;;;;;;;;;-0.10;99.90;;;;;;5056887;28;19968;-77
2023/01/19 06:25:54;;;;;;;;;;;-0.10;99.90;;;;;;5073462;28;20399;-77
2023/01/19 06:28:24;;;;;;;;;;;-0.10;99.90;;;;;;5078138;28;19964;-77
2023/01/19 06:30:51;;;;;;;;;;;-0.10;99.90;;;;;;5057751;28;19931;-77
2023/01/19 06:33:18;;;;;;;;;;;-0.10;99.90;;;;;;5074733;28;19924;-79
2023/01/19 06:35:46;;;;;;;;;;;-0.10;99.90;;;;;;5071418;28;19924;-78
2023/01/19 06:38:17;;;;;;;;;;;-0.20;99.90;;;;;;5077680;28;19940;-78
2023/01/19 06:40:46;;;;;;;;;;;-0.20;99.90;;;;;;5079919;28;20367;-78
2023/01/19 06:43:14;;;;;;;;;;;-0.20;99.90;;;;;;5084481;28;19973;-78
2023/01/19 06:45:41;;;;;;;;;;;-0.20;99.90;;;;;;5063602;28;19998;-78
2023/01/19 06:48:08;;;;;;;;;;;-0.10;99.90;;;;;;5067555;28;20041;-78
2023/01/19 06:50:35;;;;;;;;;;;-0.20;99.90;;;;;;5060247;28;20310;-79
2023/01/19 06:53:02;;;;;;;;;;;-0.20;99.90;;;;;;5064553;28;19958;-78
2023/01/19 06:55:29;;;;;;;;;;;-0.20;99.90;;;;;;5083044;28;19967;-78
2023/01/19 06:57:58;;;;;;;;;;;-0.20;99.90;;;;;;5080538;28;19935;-78
2023/01/19 07:00:25;;;;;;;;;;;-0.20;99.90;;;;;;5082941;28;20362;-78
2023/01/19 07:02:53;;;;;;;;;;;-0.20;99.90;;;;;;5079863;28;19967;-78
2023/01/19 07:05:22;;;;;;;;;;;-0.20;99.90;;;;;;5086727;28;20356;-78
2023/01/19 07:07:52;;;;;;;;;;;-0.20;99.90;;;;;;5063546;28;19924;-78
2023/01/19 07:10:19;;;;;;;;;;;-0.20;99.90;;;;;;5058263;28;19950;-78
2023/01/19 07:12:46;;;;;;;;;;;-0.20;99.90;;;;;;5079993;28;19932;-79
2023/01/19 07:15:15;;;;;;;;;;;-0.30;99.90;;;;;;5068179;28;19940;-78
2023/01/19 07:17:44;;;;;;;;;;;-0.30;99.90;;;;;;5084581;28;19943;-79
2023/01/19 07:20:13;;;;;;;;;;;-0.30;99.90;;;;;;5057786;28;19998;-78
2023/01/19 07:22:40;;;;;;;;;;;-0.30;99.90;;;;;;5057859;28;19958;-78
2023/01/19 07:25:07;;;;;;;;;;;-0.30;99.90;;;;;;5080220;28;19971;-78
2023/01/19 07:27:34;;;;;;;;;;;-0.30;99.90;;;;;;5076852;28;19924;-78
2023/01/19 07:30:01;;;;;;;;;;;-0.30;99.90;;;;;;5073700;28;20340;-78
2023/01/19 07:32:32;;;;;;;;;;;-0.30;99.90;;;;;;5078355;28;20023;-78
2023/01/19 07:34:59;;;;;;;;;;;-0.30;99.90;;;;;;5077043;28;20314;-78
2023/01/19 07:37:26;;;;;;;;;;;-0.30;99.90;;;;;;5074231;28;19924;-78
2023/01/19 07:39:53;;;;;;;;;;;-0.30;99.90;;;;;;5060873;28;19928;-78
2023/01/19 07:42:19;;;;;;;;;;;-0.40;99.90;;;;;;5079201;28;19928;-78
2023/01/19 07:44:47;;;;;;;;;;;-0.40;99.90;;;;;;5069274;28;20128;-78
2023/01/19 07:47:14;;;;;;;;;;;-0.40;99.90;;;;;;5074765;28;19936;-78
2023/01/19 07:49:42;;;;;;;;;;;-0.40;99.90;;;;;;5065317;28;20004;-78
2023/01/19 07:52:09;;;;;;;;;;;-0.30;99.90;;;;;;5061922;28;19924;-78
2023/01/19 07:54:39;;;;;;;;;;;-0.30;99.90;;;;;;5073134;28;20466;-78
2023/01/19 07:57:06;;;;;;;;;;;-0.40;99.90;;;;;;5080121;28;19928;-79
2023/01/19 07:59:33;;;;;;;;;;;-0.40;99.90;;;;;;5047966;28;20484;-79
2023/01/19 08:01:59;;;;;;;;;;;-0.40;99.90;;;;;;5070309;28;20011;-78
2023/01/19 08:04:26;;;;;;;;;;;-0.40;99.90;;;;;;5057711;28;20310;-78
2023/01/19 08:06:55;;;;;;;;;;;-0.40;99.90;;;;;;5074545;28;19931;-79
2023/01/19 08:09:23;;;;;;;;;;;-0.40;99.90;;;;;;5055678;28;19928;-79
2023/01/19 08:11:50;;;;;;;;;;;-0.40;99.90;;;;;;5054002;28;19931;-79
2023/01/19 08:14:17;;;;;;;;;;;-0.40;99.90;;;;;;5073921;28;19932;-78
2023/01/19 08:16:44;;;;;;;;;;;-0.40;99.90;;;;;;5050883;28;19931;-79
2023/01/19 08:19:12;;;;;;;;;;;-0.40;99.90;;;;;;5071373;28;20357;-78
2023/01/19 08:21:39;;;;;;;;;;;-0.40;99.90;;;;;;5070315;28;20426;-78
2023/01/19 08:24:17;;;;;;;;;;;-0.40;99.90;;;;;;5068748;28;19992;-78
2023/01/19 08:26:44;;;;;;;;;;;-0.40;99.90;;;;;;5073919;28;20023;-79
2023/01/19 08:29:11;;;;;;;;;;;-0.40;99.90;;;;;;5073609;28;19928;-78
2023/01/19 08:31:38;;;;;;;;;;;-0.40;99.90;;;;;;5056409;28;20429;-78
2023/01/19 08:34:05;;;;;;;;;;;-0.40;99.90;;;;;;5067519;28;19924;-79
2023/01/19 08:36:32;;;;;;;;;;;-0.40;99.90;;;;;;5055582;28;19939;-79
2023/01/19 08:38:59;;;;;;;;;;;-0.40;99.90;;;;;;5076340;28;19972;-79
2023/01/19 08:41:27;;;;;;;;;;;-0.50;99.90;;;;;;5078417;28;20325;-79
2023/01/19 08:43:54;;;;;;;;;;;-0.50;99.90;;;;;;5074786;28;19924;-78
2023/01/19 08:46:21;;;;;;;;;;;-0.40;99.90;;;;;;5054088;28;20410;-80
2023/01/19 08:48:49;;;;;;;;;;;-0.40;99.90;;;;;;5059609;28;21156;-80
2023/01/19 08:51:16;;;;;;;;;;;-0.50;99.90;;;;;;5055165;28;19928;-78
2023/01/19 08:53:43;;;;;;;;;;;-0.50;99.90;;;;;;5056295;28;19970;-80
2023/01/19 08:56:11;;;;;;;;;;;-0.50;99.90;;;;;;5053014;28;19928;-79
2023/01/19 08:58:40;;;;;;;;;;;-0.50;99.90;;;;;;5059381;28;20028;-78
2023/01/19 09:01:07;;;;;;;;;;;-0.50;99.90;;;;;;5074288;28;20015;-77
2023/01/19 09:03:35;;;;;;;;;;;-0.50;99.90;;;;;;5079566;28;19932;-78
2023/01/19 09:06:02;;;;;;;;;;;-0.40;99.90;;;;;;5057808;28;19931;-79
2023/01/19 09:08:29;;;;;;;;;;;-0.40;99.90;;;;;;5080462;28;20018;-78
2023/01/19 09:10:56;;;;;;;;;;;-0.40;99.90;;;;;;5075564;28;19959;-78
2023/01/19 09:13:24;;;;;;;;;;;-0.50;99.90;;;;;;5067340;28;19924;-78
2023/01/19 09:15:53;;;;;;;;;;;-0.50;99.90;;;;;;5076842;28;20362;-77
2023/01/19 09:18:21;;;;;;;;;;;-0.50;99.90;;;;;;5075730;28;19932;-78
2023/01/19 09:20:49;;;;;;;;;;;-0.50;99.90;;;;;;5057870;28;20374;-79
2023/01/19 09:23:17;;;;;;;;;;;-0.50;99.90;;;;;;5075413;28;19924;-77
2023/01/19 09:25:45;;;;;;;;;;;-0.50;99.90;;;;;;5072486;28;20297;-78
2023/01/19 09:28:13;;;;;;;;;;;-0.50;99.90;;;;;;5080166;28;19924;-78
2023/01/19 09:30:40;;;;;;;;;;;-0.50;99.90;;;;;;5070942;28;20015;-79
2023/01/19 09:33:10;;;;;;;;;;;-0.50;99.90;;;;;;5072784;28;19932;-78
2023/01/19 09:35:37;;;;;;;;;;;-0.50;99.90;;;;;;5072206;28;19924;-78
2023/01/19 09:38:03;;;;;;;;;;;-0.50;99.90;;;;;;5073383;28;19932;-78
2023/01/19 09:40:30;;;;;;;;;;;-0.50;99.90;;;;;;5067085;28;20243;-77
2023/01/19 09:43:01;;;;;;;;;;;-0.50;99.90;;;;;;5055641;28;19932;-78
2023/01/19 09:45:31;;;;;;;;;;;-0.50;99.90;;;;;;5059318;28;19932;-79
2023/01/19 09:47:59;;;;;;;;;;;-0.50;99.90;;;;;;5064227;28;19931;-79
2023/01/19 09:50:28;;;;;;;;;;;-0.50;99.90;;;;;;5086629;28;19924;-79
2023/01/19 09:52:59;;;;;;;;;;;-0.50;99.90;;;;;;5085522;28;19928;-78
2023/01/19 09:55:27;;;;;;;;;;;-0.50;99.90;;;;;;5083107;28;19931;-78
2023/01/19 09:57:54;;;;;;;;;;;-0.50;99.90;;;;;;5062530;28;19924;-79
2023/01/19 10:00:23;;;;;;;;;;;-0.50;99.90;;;;;;5075035;28;19924;-79
2023/01/19 10:02:53;;;;;;;;;;;-0.50;99.90;;;;;;5080107;28;19935;-78
2023/01/19 10:05:26;;;;;;;;;;;-0.50;99.90;;;;;;5086726;28;20007;-79
2023/01/19 10:08:08;;;;;;;;;;;-0.40;99.90;;;;;;5083475;28;19923;-79
2023/01/19 10:10:36;;;;;;;;;;;-0.50;99.90;;;;;;5069573;28;19947;-78
2023/01/19 10:13:16;;;;;;;;;;;-0.50;99.90;;;;;;5071459;28;19928;-79
2023/01/19 10:15:52;;;;;;;;;;;-0.40;99.90;;;;;;5076582;28;20489;-79
2023/01/19 10:18:20;;;;;;;;;;;-0.40;99.90;;;;;;5060756;28;19932;-79
2023/01/19 10:20:49;;;;;;;;;;;-0.40;99.90;;;;;;5058544;28;19931;-79
2023/01/19 10:23:23;;;;;;;;;;;-0.40;99.90;;;;;;5070954;28;19932;-79
2023/01/19 10:25:50;;;;;;;;;;;-0.40;99.90;;;;;;5058051;28;19928;-79
2023/01/19 10:28:19;;;;;;;;;;;-0.40;99.90;;;;;;5074792;28;19994;-79
2023/01/19 10:30:47;;;;;;;;;;;-0.40;99.90;;;;;;5074705;28;19928;-79
2023/01/19 10:33:15;;;;;;;;;;;-0.40;99.90;;;;;;5069461;28;19931;-79
2023/01/19 10:35:43;;;;;;;;;;;-0.40;99.90;;;;;;5078168;28;19928;-79
2023/01/19 10:38:13;;;;;;;;;;;-0.40;99.90;;;;;;5069213;28;19939;-78
2023/01/19 10:40:46;;;;;;;;;;;-0.40;99.90;;;;;;5085084;28;19981;-78
2023/01/19 10:43:31;;;;;;;;;;;-0.40;99.90;;;;;;5084420;28;20415;-79
2023/01/19 10:45:58;;;;;;;;;;;-0.40;99.90;;;;;;5084771;28;19924;-79
2023/01/19 10:48:25;;;;;;;;;;;-0.40;99.90;;;;;;5085574;28;19924;-79
2023/01/19 10:51:01;;;;;;;;;;;-0.40;99.90;;;;;;5066965;28;20417;-79
2023/01/19 10:53:28;;;;;;;;;;;-0.40;99.90;;;;;;5064333;28;20245;-78
2023/01/19 10:56:10;;;;;;;;;;;-0.40;99.90;;;;;;5062401;28;20392;-78
2023/01/19 10:58:39;;;;;;;;;;;-0.40;99.90;;;;;;5075891;28;20382;-78
2023/01/19 11:01:13;;;;;;;;;;;-0.40;99.90;;;;;;5075888;28;20028;-78
2023/01/19 11:03:42;;;;;;;;;;;-0.40;99.90;;;;;;5064352;28;19945;-78
2023/01/19 11:06:22;;;;;;;;;;;-0.40;99.90;;;;;;5081648;28;19948;-79
2023/01/19 11:08:50;;;;;;;;;;;-0.40;99.90;;;;;;5073075;28;19987;-79
2023/01/19 11:11:17;;;;;;;;;;;-0.40;99.90;;;;;;5073983;28;19932;-79
2023/01/19 11:14:01;;;;;;;;;;;-0.40;99.90;;;;;;5083811;28;19948;-81
2023/01/19 11:16:29;;;;;;;;;;;-0.40;99.90;;;;;;5075431;28;19978;-78
2023/01/19 11:18:57;;;;;;;;;;;-0.40;99.90;;;;;;5084827;28;19928;-78
2023/01/19 11:21:24;;;;;;;;;;;-0.30;99.90;;;;;;5066179;28;20961;-79
2023/01/19 11:23:52;;;;;;;;;;;-0.30;99.90;;;;;;5077526;28;20452;-78
2023/01/19 11:26:25;;;;;;;;;;;-0.30;99.90;;;;;;5075527;28;19955;-79
2023/01/19 11:28:54;;;;;;;;;;;-0.30;99.90;;;;;;5060427;28;20018;-79
2023/01/19 11:31:31;;;;;;;;;;;-0.30;99.90;;;;;;5064247;28;19993;-79
2023/01/19 11:33:58;;;;;;;;;;;-0.30;99.90;;;;;;5085749;28;20427;-79
2023/01/19 11:36:27;;;;;;;;;;;-0.30;99.90;;;;;;5073065;28;20015;-79
2023/01/19 11:38:54;;;;;;;;;;;-0.30;99.90;;;;;;5077279;28;19963;-78
2023/01/19 11:41:22;;;;;;;;;;;-0.30;99.90;;;;;;5082889;28;19928;-80
2023/01/19 11:43:51;;;;;;;;;;;-0.20;99.90;;;;;;5062356;28;20354;-78
2023/01/19 11:46:20;;;;;;;;;;;-0.20;99.90;;;;;;5078014;28;20013;-77
2023/01/19 11:48:49;;;;;;;;;;;-0.20;99.90;;;;;;5085369;28;20824;-80
2023/01/19 11:51:19;;;;;;;;;;;-0.20;99.90;;;;;;5078881;28;19927;-78
2023/01/19 11:53:49;;;;;;;;;;;-0.20;99.90;;;;;;5058502;28;19928;-78
2023/01/19 11:56:17;;;;;;;;;;;-0.10;99.90;;;;;;5073066;28;19928;-79
2023/01/19 11:58:46;;;;;;;;;;;-0.10;99.90;;;;;;5081099;28;20014;-79
2023/01/19 12:01:19;;;;;;;;;;;-0.10;99.90;;;;;;5066154;28;19927;-80
2023/01/19 12:03:54;;;;;;;;;;;-0.10;99.90;;;;;;5059054;28;19967;-79
2023/01/19 12:06:22;;;;;;;;;;;-0.10;99.90;;;;;;5067468;28;19982;-79
2023/01/19 12:08:51;;;;;;;;;;;-0.10;99.90;;;;;;5085419;28;19974;-79
2023/01/19 12:11:20;;;;;;;;;;;0.00;99.90;;;;;;5065707;28;19924;-80
2023/01/19 12:13:46;;;;;;;;;;;0.00;99.90;;;;;;5076898;28;19932;-79
2023/01/19 12:16:18;;;;;;;;;;;0.00;99.90;;;;;;5081688;28;20324;-80
2023/01/19 12:18:48;;;;;;;;;;;0.00;99.90;;;;;;5064713;28;19924;-79
2023/01/19 12:21:16;;;;;;;;;;;0.00;99.90;;;;;;5074270;28;20513;-79
2023/01/19 12:23:47;;;;;;;;;;;0.00;99.90;;;;;;5058032;28;20309;-79
2023/01/19 12:26:21;;;;;;;;;;;0.00;99.90;;;;;;5058730;28;20018;-79
2023/01/19 12:28:49;;;;;;;;;;;0.10;99.90;;;;;;5070902;28;20007;-79
2023/01/19 12:31:19;;;;;;;;;;;0.10;99.90;;;;;;5075206;28;19936;-79
2023/01/19 12:33:47;;;;;;;;;;;0.10;99.90;;;;;;5064254;28;20390;-78
2023/01/19 12:36:28;;;;;;;;;;;0.10;99.90;;;;;;5081517;28;19928;-79
2023/01/19 12:38:57;;;;;;;;;;;0.10;99.90;;;;;;5079577;28;19928;-79
2023/01/19 12:41:27;;;;;;;;;;;0.10;99.90;;;;;;5082378;28;19931;-79
2023/01/19 12:44:14;;;;;;;;;;;0.10;99.90;;;;;;5081323;28;19924;-79
2023/01/19 12:46:42;;;;;;;;;;;0.10;99.90;;;;;;5079811;28;20275;-78
2023/01/19 12:49:14;;;;;;;;;;;0.20;99.90;;;;;;5074004;28;19928;-79
2023/01/19 12:51:41;;;;;;;;;;;0.20;99.90;;;;;;5071997;28;19981;-79
2023/01/19 12:54:19;;;;;;;;;;;0.20;99.90;;;;;;5081400;28;19939;-79
2023/01/19 12:56:46;;;;;;;;;;;0.20;99.90;;;;;;5077969;28;19935;-79
2023/01/19 12:59:23;;;;;;;;;;;0.20;99.90;;;;;;5083118;28;20001;-80
2023/01/19 13:02:05;;;;;;;;;;;0.20;99.90;;;;;;5086505;28;19935;-80
2023/01/19 13:04:33;;;;;;;;;;;0.20;99.90;;;;;;5078447;28;19936;-80
2023/01/19 13:07:09;;;;;;;;;;;0.30;99.90;;;;;;5088631;28;19928;-80
2023/01/19 13:09:38;;;;;;;;;;;0.20;99.90;;;;;;5070336;28;19951;-80
2023/01/19 13:12:19;;;;;;;;;;;0.30;99.90;;;;;;5073631;28;19968;-79
2023/01/19 13:14:46;;;;;;;;;;;0.30;99.90;;;;;;5066083;28;20390;-79
2023/01/19 13:17:30;;;;;;;;;;;0.30;99.90;;;;;;5064116;28;19935;-79
2023/01/19 13:20:18;;;;;;;;;;;0.30;99.90;;;;;;5061499;28;19928;-79
2023/01/19 13:22:52;;;;;;;;;;;0.30;99.90;;;;;;5085477;28;19928;-79
2023/01/19 13:25:28;;;;;;;;;;;0.30;99.90;;;;;;5079290;28;20398;-78
2023/01/19 13:27:55;;;;;;;;;;;0.30;99.90;;;;;;5079040;28;19928;-79
2023/01/19 13:30:25;;;;;;;;;;;0.30;99.90;;;;;;5062009;28;19928;-79
2023/01/19 13:32:52;;;;;;;;;;;0.30;99.90;;;;;;5077785;28;19932;-78
2023/01/19 13:35:20;;;;;;;;;;;0.30;99.90;;;;;;5079982;28;19928;-79
2023/01/19 13:37:47;;;;;;;;;;;0.30;99.90;;;;;;5077845;28;19928;-80
2023/01/19 13:40:16;;;;;;;;;;;0.40;99.90;;;;;;5071296;28;19947;-78
2023/01/19 13:42:45;;;;;;;;;;;0.40;99.90;;;;;;5077822;28;19924;-79
2023/01/19 13:45:16;;;;;;;;;;;0.40;99.90;;;;;;5076943;28;20030;-79
2023/01/19 13:47:44;;;;;;;;;;;0.40;99.90;;;;;;5050586;28;19933;-80
2023/01/19 13:50:18;;;;;;;;;;;0.40;99.90;;;;;;5072717;28;19932;-79
2023/01/19 13:52:47;;;;;;;;;;;0.40;99.90;;;;;;5071375;28;19928;-79
2023/01/19 13:55:15;;;;;;;;;;;0.40;99.90;;;;;;5074793;28;20057;-77
2023/01/19 13:57:44;;;;;;;;;;;0.40;99.90;;;;;;5078977;28;21498;-79
2023/01/19 14:00:18;;;;;;;;;;;0.40;99.90;;;;;;5059209;28;19950;-79
2023/01/19 14:02:57;;;;;;;;;;;0.40;99.90;;;;;;5074311;28;19932;-79
2023/01/19 14:05:26;;;;;;;;;;;0.50;99.90;;;;;;5051789;28;19947;-79
2023/01/19 14:08:00;;;;;;;;;;;0.40;99.90;;;;;;5062151;28;19932;-79
2023/01/19 14:10:30;;;;;;;;;;;0.40;99.90;;;;;;5068274;28;19928;-79
2023/01/19 14:13:01;;;;;;;;;;;0.50;99.90;;;;;;5057912;28;19939;-79
2023/01/19 14:15:31;;;;;;;;;;;0.50;99.90;;;;;;5076799;28;20009;-79
2023/01/19 14:18:09;;;;;;;;;;;0.50;99.90;;;;;;5078439;28;19954;-79
2023/01/19 14:20:36;;;;;;;;;;;0.50;99.90;;;;;;5076661;28;19939;-79
2023/01/19 14:23:03;;;;;;;;;;;0.50;99.90;;;;;;5073947;28;19932;-79
2023/01/19 14:25:31;;;;;;;;;;;0.50;99.90;;;;;;5064568;28;20356;-79
2023/01/19 14:28:17;;;;;;;;;;;0.50;99.90;;;;;;5063945;28;19973;-79
2023/01/19 14:30:54;;;;;;;;;;;0.50;99.90;;;;;;5076428;28;19955;-79
2023/01/19 14:33:39;;;;;;;;;;;0.60;99.90;;;;;;5084886;28;19924;-79
2023/01/19 14:36:10;;;;;;;;;;;0.60;99.90;;;;;;5065443;28;19981;-79
2023/01/19 14:38:38;;;;;;;;;;;0.60;99.90;;;;;;5076266;28;19979;-79
2023/01/19 14:41:05;;;;;;;;;;;0.60;99.90;;;;;;5084291;28;19924;-79
2023/01/19 14:43:32;;;;;;;;;;;0.60;99.90;;;;;;5068454;28;19954;-79